createdAt,value
2022-09-17T00:01:23.481Z,5.27
2022-09-17T00:03:52.478Z,4.97
2022-09-17T00:06:19.630Z,4.22
2022-09-17T00:08:46.136Z,5.60
2022-09-17T00:11:22.266Z,5.05
2022-09-17T00:13:50.618Z,5.50
2022-09-17T00:16:32.890Z,6.15
2022-09-17T00:19:00.630Z,4.53
2022-09-17T00:21:27.892Z,4.30
2022-09-17T00:24:02.569Z,5.10
2022-09-17T00:26:29.714Z,4.60
2022-09-17T00:28:57.378Z,4.50
2022-09-17T00:31:24.612Z,5.00
2022-09-17T00:33:51.588Z,4.88
2022-09-17T00:36:20.462Z,4.95
2022-09-17T00:38:58.231Z,5.57
2022-09-17T00:41:28.209Z,5.03
2022-09-17T00:43:57.859Z,4.93
2022-09-17T00:46:32.542Z,5.72
2022-09-17T00:49:07.310Z,4.57
2022-09-17T00:51:39.263Z,3.63
2022-09-17T00:54:09.568Z,3.97
2022-09-17T00:56:39.222Z,4.03
2022-09-17T00:59:06.133Z,3.53
2022-09-17T01:01:33.093Z,4.13
2022-09-17T01:03:59.890Z,3.90
2022-09-17T01:06:36.087Z,4.50
2022-09-17T01:09:17.429Z,4.90
2022-09-17T01:11:52.189Z,3.97
2022-09-17T01:15:00.386Z,4.18
2022-09-17T01:17:58.650Z,4.60
2022-09-17T01:20:37.062Z,4.50
2022-09-17T01:23:30.879Z,4.22
2022-09-17T01:26:00.199Z,4.72
2022-09-17T01:28:43.320Z,3.78
2022-09-17T01:31:22.280Z,4.93
2022-09-17T01:33:58.716Z,4.95
2022-09-17T01:36:44.129Z,3.80
2022-09-17T01:39:33.511Z,4.95
2022-09-17T01:42:15.155Z,5.55
2022-09-17T01:44:47.609Z,4.60
2022-09-17T01:47:24.484Z,4.88
2022-09-17T01:49:56.183Z,5.10
2022-09-17T01:52:24.945Z,4.28
2022-09-17T01:54:55.954Z,4.05
2022-09-17T01:57:28.934Z,5.10
2022-09-17T02:00:01.882Z,5.03
2022-09-17T02:02:41.069Z,4.88
2022-09-17T02:05:24.571Z,4.75
2022-09-17T02:08:06.778Z,5.00
2022-09-17T02:10:40.094Z,4.20
2022-09-17T02:13:14.463Z,4.95
2022-09-17T02:15:47.485Z,4.95
2022-09-17T02:18:44.683Z,4.85
2022-09-17T02:21:23.113Z,4.72
2022-09-17T02:24:18.150Z,4.73
2022-09-17T02:26:59.522Z,4.70
2022-09-17T02:29:43.502Z,4.72
2022-09-17T02:32:10.931Z,3.97
2022-09-17T02:34:37.867Z,3.80
2022-09-17T02:37:04.849Z,3.27
2022-09-17T02:39:31.536Z,4.78
2022-09-17T02:42:34.958Z,5.00
2022-09-17T02:45:21.097Z,4.50
2022-09-17T02:48:11.624Z,4.80
2022-09-17T02:51:06.550Z,4.83
2022-09-17T02:53:58.055Z,4.72
2022-09-17T02:56:46.998Z,4.22
2022-09-17T02:59:24.083Z,3.90
2022-09-17T03:02:13.369Z,3.65
2022-09-17T03:04:40.438Z,5.30
2022-09-17T03:07:12.029Z,4.35
2022-09-17T03:09:38.963Z,4.68
2022-09-17T03:12:05.789Z,4.82
2022-09-17T03:14:32.228Z,4.38
2022-09-17T03:16:58.709Z,4.53
2022-09-17T03:19:25.178Z,5.50
2022-09-17T03:21:51.613Z,4.15
2022-09-17T03:24:18.048Z,5.20
2022-09-17T03:26:44.483Z,3.80
2022-09-17T03:29:10.913Z,3.50
2022-09-17T03:31:37.409Z,4.60
2022-09-17T03:34:03.887Z,4.70
2022-09-17T03:36:30.499Z,4.22
2022-09-17T03:38:57.714Z,4.68
2022-09-17T03:41:24.310Z,5.43
2022-09-17T03:43:51.487Z,4.60
2022-09-17T03:46:18.348Z,4.70
2022-09-17T03:48:45.228Z,4.70
2022-09-17T03:51:11.691Z,4.15
2022-09-17T03:53:38.291Z,4.23
2022-09-17T03:56:06.681Z,4.20
2022-09-17T03:58:34.288Z,4.25
2022-09-17T04:01:00.998Z,4.63
2022-09-17T04:03:28.346Z,3.78
2022-09-17T04:05:55.490Z,3.67
2022-09-17T04:08:22.433Z,3.75
2022-09-17T04:10:49.026Z,3.55
2022-09-17T04:13:16.729Z,3.20
2022-09-17T04:15:43.329Z,2.90
2022-09-17T04:18:10.257Z,3.50
2022-09-17T04:20:36.953Z,3.40
2022-09-17T04:23:03.659Z,3.95
2022-09-17T04:25:31.032Z,3.80
2022-09-17T04:27:57.434Z,3.63
2022-09-17T04:30:23.914Z,3.97
2022-09-17T04:32:50.316Z,4.13
2022-09-17T04:35:16.943Z,3.53
2022-09-17T04:37:43.369Z,3.92
2022-09-17T04:40:10.544Z,4.03
2022-09-17T04:42:36.984Z,3.40
2022-09-17T04:45:03.567Z,4.13
2022-09-17T04:47:30.017Z,3.33
2022-09-17T04:49:56.446Z,4.00
2022-09-17T04:52:24.170Z,3.75
2022-09-17T04:54:52.920Z,3.73
2022-09-17T04:57:19.385Z,3.50
2022-09-17T04:59:45.866Z,3.70
2022-09-17T05:02:12.399Z,4.22
2022-09-17T05:04:38.879Z,3.40
2022-09-17T05:07:05.816Z,4.47
2022-09-17T05:09:32.253Z,4.00
2022-09-17T05:11:58.652Z,4.18
2022-09-17T05:14:25.082Z,4.30
2022-09-17T05:16:51.573Z,3.55
2022-09-17T05:19:18.677Z,4.23
2022-09-17T05:21:45.069Z,3.25
2022-09-17T05:24:11.482Z,3.67
2022-09-17T05:26:37.889Z,3.22
2022-09-17T05:29:04.759Z,3.95
2022-09-17T05:31:31.246Z,3.50
2022-09-17T05:33:59.145Z,3.80
2022-09-17T05:36:25.646Z,3.92
2022-09-17T05:38:52.061Z,3.33
2022-09-17T05:41:18.631Z,3.80
2022-09-17T05:43:45.047Z,3.43
2022-09-17T05:46:11.639Z,2.78
2022-09-17T05:48:38.184Z,3.00
2022-09-17T05:51:04.718Z,3.10
2022-09-17T05:53:31.219Z,4.30
2022-09-17T05:55:59.008Z,3.30
2022-09-17T05:58:27.056Z,4.13
2022-09-17T06:00:53.520Z,3.97
2022-09-17T06:03:22.586Z,4.82
2022-09-17T06:05:58.083Z,3.33
2022-09-17T06:08:25.942Z,3.53
2022-09-17T06:10:52.640Z,3.42
2022-09-17T06:13:20.129Z,3.58
2022-09-17T06:15:53.893Z,3.53
2022-09-17T06:18:20.986Z,2.90
2022-09-17T06:21:13.631Z,4.13
2022-09-17T06:23:40.080Z,3.75
2022-09-17T06:26:06.830Z,4.05
2022-09-17T06:28:35.797Z,4.25
2022-09-17T06:31:06.467Z,3.80
2022-09-17T06:33:33.754Z,4.03
2022-09-17T06:36:02.976Z,3.03
2022-09-17T06:38:30.772Z,3.10
2022-09-17T06:40:57.353Z,2.92
2022-09-17T06:43:24.404Z,3.33
2022-09-17T06:45:56.173Z,3.40
2022-09-17T06:48:24.040Z,3.60
2022-09-17T06:50:54.389Z,3.40
2022-09-17T06:53:22.745Z,3.53
2022-09-17T06:55:49.537Z,3.28
2022-09-17T06:58:16.244Z,3.30
2022-09-17T07:00:42.724Z,3.00
2022-09-17T07:03:09.467Z,2.95
2022-09-17T07:05:35.963Z,2.90
2022-09-17T07:08:05.425Z,2.78
2022-09-17T07:10:32.345Z,4.23
2022-09-17T07:12:59.377Z,3.08
2022-09-17T07:15:26.047Z,3.05
2022-09-17T07:17:53.183Z,2.72
2022-09-17T07:20:20.130Z,3.47
2022-09-17T07:22:54.739Z,3.50
2022-09-17T07:25:21.259Z,4.07
2022-09-17T07:27:47.675Z,2.72
2022-09-17T07:30:14.149Z,3.08
2022-09-17T07:32:40.561Z,4.43
2022-09-17T07:35:07.248Z,3.10
2022-09-17T07:37:33.790Z,4.03
2022-09-17T07:40:00.321Z,3.90
2022-09-17T07:42:27.465Z,3.83
2022-09-17T07:44:56.515Z,4.15
2022-09-17T07:47:25.094Z,3.07
2022-09-17T07:49:51.515Z,3.53
2022-09-17T07:52:17.970Z,3.08
2022-09-17T07:54:44.422Z,3.15
2022-09-17T07:57:10.849Z,3.60
2022-09-17T07:59:37.648Z,3.60
2022-09-17T08:02:04.213Z,3.70
2022-09-17T08:04:30.715Z,3.08
2022-09-17T08:06:57.121Z,2.90
2022-09-17T08:09:23.577Z,2.35
2022-09-17T08:11:57.122Z,3.27
2022-09-17T08:14:28.431Z,3.17
2022-09-17T08:16:55.756Z,3.10
2022-09-17T08:19:22.228Z,2.58
2022-09-17T08:21:48.736Z,2.60
2022-09-17T08:24:15.500Z,2.43
2022-09-17T08:26:42.056Z,2.60
2022-09-17T08:29:08.568Z,2.95
2022-09-17T08:31:35.114Z,3.17
2022-09-17T08:34:01.713Z,2.88
2022-09-17T08:36:28.614Z,3.57
2022-09-17T08:38:56.192Z,3.20
2022-09-17T08:41:49.036Z,2.40
2022-09-17T08:44:21.205Z,2.20
2022-09-17T08:46:51.381Z,2.15
2022-09-17T08:49:40.825Z,2.90
2022-09-17T08:52:41.778Z,2.97
2022-09-17T08:55:49.953Z,3.05
2022-09-17T08:58:40.756Z,2.10
2022-09-17T09:01:22.416Z,2.70
2022-09-17T09:04:30.115Z,2.70
2022-09-17T09:07:10.365Z,3.25
2022-09-17T09:09:41.630Z,2.20
2022-09-17T09:12:18.162Z,2.17
2022-09-17T09:14:58.517Z,2.20
2022-09-17T09:17:32.586Z,2.00
2022-09-17T09:19:59.007Z,1.85
2022-09-17T09:22:34.368Z,1.90
2022-09-17T09:25:04.591Z,2.88
2022-09-17T09:27:51.490Z,1.63
2022-09-17T09:30:24.330Z,2.10
2022-09-17T09:32:55.061Z,1.65
2022-09-17T09:35:28.566Z,2.35
2022-09-17T09:38:01.347Z,2.03
2022-09-17T09:43:19.735Z,1.70
2022-09-17T09:45:51.325Z,1.55
2022-09-17T09:48:27.268Z,2.22
2022-09-17T09:51:20.154Z,2.42
2022-09-17T09:53:46.545Z,1.90
2022-09-17T09:56:28.242Z,2.67
2022-09-17T09:58:54.665Z,2.05
2022-09-17T10:01:21.222Z,2.20
2022-09-17T10:03:49.749Z,2.22
2022-09-17T10:06:17.899Z,3.00
2022-09-17T10:08:50.052Z,2.30
2022-09-17T10:11:25.479Z,2.30
2022-09-17T10:13:52.078Z,1.90
2022-09-17T10:16:24.846Z,1.85
2022-09-17T10:19:20.165Z,2.70
2022-09-17T10:21:46.581Z,1.93
2022-09-17T10:24:28.832Z,2.03
2022-09-17T10:27:11.552Z,2.10
2022-09-17T10:29:44.419Z,2.20
2022-09-17T10:32:16.691Z,2.10
2022-09-17T10:34:58.589Z,2.67
2022-09-17T10:37:45.032Z,2.30
2022-09-17T10:40:20.455Z,2.00
2022-09-17T10:42:49.095Z,2.05
2022-09-17T10:45:25.880Z,2.47
2022-09-17T10:47:54.241Z,2.47
2022-09-17T10:50:27.084Z,2.03
2022-09-17T10:53:00.532Z,2.33
2022-09-17T10:55:42.974Z,2.55
2022-09-17T10:58:26.435Z,2.03
2022-09-17T11:01:25.951Z,2.00
2022-09-17T11:04:07.338Z,2.65
2022-09-17T11:06:47.967Z,2.60
2022-09-17T11:09:22.204Z,2.28
2022-09-17T11:12:09.889Z,2.45
2022-09-17T11:14:37.925Z,2.30
2022-09-17T11:17:10.131Z,2.60
2022-09-17T11:20:04.178Z,2.42
2022-09-17T11:22:53.578Z,2.83
2022-09-17T11:25:20.079Z,2.95
2022-09-17T11:28:10.894Z,3.33
2022-09-17T11:30:48.922Z,2.70
2022-09-17T11:33:30.605Z,3.22
2022-09-17T11:36:09.152Z,2.83
2022-09-17T11:38:53.418Z,2.85
2022-09-17T11:41:25.939Z,2.60
2022-09-17T11:44:20.593Z,3.20
2022-09-17T11:46:53.956Z,2.30
2022-09-17T11:49:29.567Z,2.92
2022-09-17T11:52:34.671Z,2.70
2022-09-17T11:55:23.645Z,2.30
2022-09-17T11:57:57.845Z,2.90
2022-09-17T12:00:24.372Z,2.27
2022-09-17T12:03:06.761Z,2.72
2022-09-17T12:05:40.057Z,2.65
2022-09-17T12:08:19.508Z,2.67
2022-09-17T12:11:21.504Z,3.15
2022-09-17T12:13:52.838Z,2.80
2022-09-17T12:16:36.448Z,4.07
2022-09-17T12:19:34.335Z,3.22
2022-09-17T12:22:15.578Z,2.45
2022-09-17T12:24:43.107Z,3.70
2022-09-17T12:27:16.965Z,2.73
2022-09-17T12:30:01.907Z,2.75
2022-09-17T12:33:00.948Z,3.30
2022-09-17T12:35:46.390Z,2.65
2022-09-17T12:38:45.693Z,2.88
2022-09-17T12:41:33.041Z,2.23
2022-09-17T12:44:24.167Z,2.00
2022-09-17T12:47:07.988Z,2.60
2022-09-17T12:49:37.735Z,2.85
2022-09-17T12:52:18.914Z,3.03
2022-09-17T12:55:03.756Z,2.63
2022-09-17T12:57:39.169Z,2.92
2022-09-17T13:00:09.422Z,2.50
2022-09-17T13:02:54.141Z,2.38
2022-09-17T13:05:38.925Z,2.97
2022-09-17T13:08:11.400Z,2.23
2022-09-17T13:10:59.787Z,2.45
2022-09-17T13:13:51.239Z,2.38
2022-09-17T13:16:25.795Z,2.53
2022-09-17T13:19:18.875Z,1.75
2022-09-17T13:21:53.485Z,2.17
2022-09-17T13:24:29.573Z,2.30
2022-09-17T13:26:58.577Z,2.58
2022-09-17T13:29:43.553Z,2.35
2022-09-17T13:32:30.001Z,2.75
2022-09-17T13:34:56.415Z,2.17
2022-09-17T13:37:24.313Z,2.15
2022-09-17T13:39:51.172Z,2.25
2022-09-17T13:42:22.332Z,1.98
2022-09-17T13:44:53.570Z,1.90
2022-09-17T13:47:24.794Z,1.57
2022-09-17T13:49:57.386Z,2.25
2022-09-17T13:52:43.142Z,1.52
2022-09-17T13:55:35.212Z,2.45
2022-09-17T13:58:08.990Z,1.92
2022-09-17T14:01:14.575Z,1.80
2022-09-17T14:03:41.876Z,1.77
2022-09-17T14:06:08.482Z,2.00
2022-09-17T14:08:44.024Z,1.98
2022-09-17T14:11:22.664Z,2.00
2022-09-17T14:13:51.958Z,1.80
2022-09-17T14:16:42.670Z,2.00
2022-09-17T14:19:15.255Z,2.20
2022-09-17T14:22:14.959Z,2.50
2022-09-17T14:24:44.327Z,2.17
2022-09-17T14:27:13.601Z,1.97
2022-09-17T14:30:17.504Z,2.65
2022-09-17T14:32:50.019Z,2.60
2022-09-17T14:35:20.336Z,3.30
2022-09-17T14:37:53.200Z,2.92
2022-09-17T14:40:22.045Z,3.10
2022-09-17T14:42:52.446Z,2.65
2022-09-17T14:45:27.344Z,2.63
2022-09-17T14:48:18.602Z,3.63
2022-09-17T14:50:45.156Z,2.53
2022-09-17T14:53:19.949Z,2.43
2022-09-17T14:55:52.467Z,2.58
2022-09-17T14:58:51.173Z,2.60
2022-09-17T15:01:28.826Z,2.28
2022-09-17T15:04:13.486Z,2.47
2022-09-17T15:06:41.441Z,2.60
2022-09-17T15:09:24.719Z,2.92
2022-09-17T15:11:58.213Z,2.47
2022-09-17T15:14:30.237Z,2.35
2022-09-17T15:17:00.350Z,2.20
2022-09-17T15:19:33.416Z,2.40
2022-09-17T15:22:05.943Z,3.92
2022-09-17T15:24:44.902Z,2.42
2022-09-17T15:27:24.619Z,2.45
2022-09-17T15:29:56.885Z,3.00
2022-09-17T15:32:23.436Z,2.30
2022-09-17T15:35:30.587Z,2.45
2022-09-17T15:40:49.362Z,2.30
2022-09-17T15:43:29.873Z,2.00
2022-09-17T15:45:58.221Z,2.33
2022-09-17T15:48:27.346Z,2.30
2022-09-17T15:50:56.267Z,2.30
2022-09-17T15:53:25.073Z,1.90
2022-09-17T15:56:13.390Z,1.90
2022-09-17T15:58:42.814Z,2.23
2022-09-17T16:01:15.388Z,2.00
2022-09-17T16:03:41.908Z,2.53
2022-09-17T16:06:20.805Z,2.15
2022-09-17T16:08:49.749Z,2.70
2022-09-17T16:11:24.630Z,2.20
2022-09-17T16:13:53.402Z,2.83
2022-09-17T16:16:34.097Z,3.35
2022-09-17T16:19:00.793Z,2.10
2022-09-17T16:21:29.136Z,2.65
2022-09-17T16:23:58.021Z,2.83
2022-09-17T16:26:31.463Z,2.17
2022-09-17T16:29:02.935Z,2.40
2022-09-17T16:31:29.832Z,2.83
2022-09-17T16:33:56.367Z,2.33
2022-09-17T16:36:22.952Z,2.20
2022-09-17T16:38:49.470Z,2.67
2022-09-17T16:41:15.935Z,2.60
2022-09-17T16:43:42.408Z,2.60
2022-09-17T16:46:11.130Z,2.83
2022-09-17T16:48:38.579Z,2.30
2022-09-17T16:51:08.907Z,2.95
2022-09-17T16:53:35.424Z,2.47
2022-09-17T16:56:06.905Z,2.50
2022-09-17T16:58:33.355Z,2.33
2022-09-17T17:01:05.640Z,2.40
2022-09-17T17:03:32.069Z,1.88
2022-09-17T17:05:58.535Z,2.80
2022-09-17T17:08:25.011Z,2.05
2022-09-17T17:10:51.453Z,2.85
2022-09-17T17:13:18.422Z,3.07
2022-09-17T17:15:45.296Z,2.88
2022-09-17T17:18:11.799Z,3.20
2022-09-17T17:20:38.231Z,2.88
2022-09-17T17:23:04.650Z,2.95
2022-09-17T17:25:32.231Z,2.73
2022-09-17T17:27:58.730Z,2.45
2022-09-17T17:30:25.509Z,3.40
2022-09-17T17:32:53.066Z,3.17
2022-09-17T17:35:20.417Z,2.80
2022-09-17T17:37:47.892Z,3.17
2022-09-17T17:40:14.409Z,2.92
2022-09-17T17:42:43.870Z,2.97
2022-09-17T17:45:13.609Z,2.92
2022-09-17T17:47:40.085Z,2.50
2022-09-17T17:50:07.601Z,3.13
2022-09-17T17:52:34.280Z,2.97
2022-09-17T17:55:00.716Z,2.92
2022-09-17T17:57:27.276Z,3.08
2022-09-17T17:59:53.700Z,3.15
2022-09-17T18:02:20.211Z,2.73
2022-09-17T18:04:46.839Z,2.90
2022-09-17T18:07:13.297Z,3.20
2022-09-17T18:09:39.769Z,2.90
2022-09-17T18:12:06.847Z,3.00
2022-09-17T18:14:33.415Z,2.80
2022-09-17T18:16:59.882Z,3.00
2022-09-17T18:19:26.331Z,3.30
2022-09-17T18:21:54.737Z,2.97
2022-09-17T18:24:21.501Z,2.72
2022-09-17T18:26:47.977Z,4.20
2022-09-17T18:29:14.438Z,3.75
2022-09-17T18:31:40.915Z,3.67
2022-09-17T18:34:10.961Z,3.20
2022-09-17T18:36:39.478Z,3.30
2022-09-17T18:39:44.526Z,3.23
2022-09-17T18:41:54.404Z,3.30
2022-09-17T18:44:21.814Z,2.65
2022-09-17T18:46:49.858Z,2.78
2022-09-17T18:49:16.667Z,2.97
2022-09-17T18:51:43.361Z,3.10
2022-09-17T18:54:10.840Z,2.50
2022-09-17T18:56:37.348Z,4.10
2022-09-17T18:59:07.947Z,3.70
2022-09-17T19:01:35.490Z,2.80
2022-09-17T19:04:03.163Z,2.87
2022-09-17T19:06:32.195Z,3.00
2022-09-17T19:09:00.412Z,2.80
2022-09-17T19:11:27.046Z,3.55
2022-09-17T19:13:53.620Z,3.72
2022-09-17T19:16:20.582Z,3.10
2022-09-17T19:18:47.150Z,3.58
2022-09-17T19:21:16.026Z,4.30
2022-09-17T19:23:44.286Z,3.55
2022-09-17T19:26:13.335Z,3.63
2022-09-17T19:28:39.805Z,3.70
2022-09-17T19:31:12.161Z,3.40
2022-09-17T19:33:39.318Z,3.70
2022-09-17T19:36:09.676Z,3.92
2022-09-17T19:38:36.487Z,3.28
2022-09-17T19:41:06.717Z,3.70
2022-09-17T19:43:33.580Z,3.20
2022-09-17T19:46:07.449Z,3.70
2022-09-17T19:48:37.340Z,3.28
2022-09-17T19:51:04.993Z,3.35
2022-09-17T19:53:32.898Z,3.33
2022-09-17T19:55:59.786Z,4.22
2022-09-17T19:58:26.355Z,4.78
2022-09-17T20:00:57.024Z,3.70
2022-09-17T20:03:23.791Z,4.18
2022-09-17T20:05:50.254Z,4.10
2022-09-17T20:08:16.722Z,4.47
2022-09-17T20:10:43.281Z,4.03
2022-09-17T20:13:09.686Z,4.47
2022-09-17T20:15:36.736Z,4.30
2022-09-17T20:18:03.730Z,3.10
2022-09-17T20:20:30.280Z,3.70
2022-09-17T20:22:56.754Z,3.85
2022-09-17T20:25:25.524Z,4.60
2022-09-17T20:27:53.231Z,3.65
2022-09-17T20:30:19.706Z,3.50
2022-09-17T20:32:46.260Z,3.90
2022-09-17T20:35:12.813Z,4.13
2022-09-17T20:40:25.965Z,4.07
2022-09-17T20:42:52.450Z,4.00
2022-09-17T20:45:18.867Z,4.18
2022-09-17T20:47:47.303Z,4.57
2022-09-17T20:50:13.704Z,3.97
2022-09-17T20:52:40.184Z,4.15
2022-09-17T20:55:06.918Z,3.70
2022-09-17T20:57:33.534Z,3.70
2022-09-17T21:00:05.997Z,4.03
2022-09-17T21:02:33.883Z,3.75
2022-09-17T21:05:00.286Z,3.53
2022-09-17T21:07:27.384Z,3.77
2022-09-17T21:09:53.809Z,3.50
2022-09-17T21:12:23.217Z,4.05
2022-09-17T21:14:51.942Z,3.70
2022-09-17T21:17:18.368Z,4.03
2022-09-17T21:19:44.838Z,4.13
2022-09-17T21:22:11.238Z,4.07
2022-09-17T21:24:37.665Z,4.30
2022-09-17T21:27:04.214Z,3.90
2022-09-17T21:29:30.656Z,4.13
2022-09-17T21:31:57.315Z,4.07
2022-09-17T21:34:23.797Z,3.85
2022-09-17T21:36:51.537Z,3.35
2022-09-17T21:39:18.432Z,3.60
2022-09-17T21:41:46.046Z,3.92
2022-09-17T21:44:12.872Z,3.80
2022-09-17T21:46:40.351Z,3.97
2022-09-17T21:49:07.164Z,4.10
2022-09-17T21:51:41.774Z,3.95
2022-09-17T21:54:13.677Z,3.55
2022-09-17T21:56:40.191Z,4.37
2022-09-17T21:59:09.357Z,3.88
2022-09-17T22:01:39.821Z,4.25
2022-09-17T22:04:12.701Z,3.88
2022-09-17T22:06:39.987Z,4.28
2022-09-17T22:09:10.915Z,3.57
2022-09-17T22:11:38.171Z,3.85
2022-09-17T22:14:13.541Z,4.10
2022-09-17T22:16:42.748Z,3.88
2022-09-17T22:19:11.553Z,3.83
2022-09-17T22:21:41.024Z,3.67
2022-09-17T22:24:08.551Z,3.92
2022-09-17T22:26:38.643Z,3.72
2022-09-17T22:29:08.170Z,3.95
2022-09-17T22:31:35.075Z,3.80
2022-09-17T22:34:02.345Z,4.57
2022-09-17T22:36:29.788Z,5.30
2022-09-17T22:38:58.178Z,4.68
2022-09-17T22:41:30.182Z,3.53
2022-09-17T22:44:00.128Z,3.90
2022-09-17T22:46:29.409Z,4.03
2022-09-17T22:48:56.337Z,3.55
2022-09-17T22:51:23.792Z,3.28
2022-09-17T22:53:50.703Z,4.18
2022-09-17T22:56:19.494Z,3.42
2022-09-17T22:58:46.533Z,3.33
2022-09-17T23:01:18.658Z,3.60
2022-09-17T23:03:47.168Z,3.58
2022-09-17T23:06:16.461Z,3.67
2022-09-17T23:08:43.301Z,4.07
2022-09-17T23:11:19.682Z,3.53
2022-09-17T23:13:46.858Z,3.25
2022-09-17T23:16:13.727Z,3.55
2022-09-17T23:18:40.598Z,3.55
2022-09-17T23:21:13.245Z,3.85
2022-09-17T23:23:41.620Z,3.93
2022-09-17T23:26:11.676Z,3.28
2022-09-17T23:28:38.747Z,3.90
2022-09-17T23:31:13.636Z,3.80
2022-09-17T23:33:40.640Z,3.95
2022-09-17T23:36:22.290Z,4.03
2022-09-17T23:38:49.481Z,4.22
2022-09-17T23:41:19.843Z,3.90
2022-09-17T23:43:48.716Z,3.88
2022-09-17T23:46:16.216Z,3.65
2022-09-17T23:48:42.689Z,3.23
2022-09-17T23:51:10.154Z,3.90
2022-09-17T23:53:37.598Z,3.75
2022-09-17T23:56:08.801Z,3.30
2022-09-17T23:58:35.220Z,4.10
